Flugplatz Grabenstetten

Für EDSG sind keine METAR/TAF Berichte vorhanden.
Es werden die Flugwettermeldungen vom Flugplatz Stuttgart in 23 km Entfernung angezeigt.

Bericht für EDDS

vom 23.02. um 23:50 UTC

Wind 13 kt aus 250°

Sichtweite 10 km oder mehr

schwacher Regen

gering bewölkt in 600 ft

aufgebrochene Bewölkung in 4000 ft

Temperatur 11.0°C

Taupunkt 9.0°C

Luftfeuchtigkeit 87%

Luftdruck 1022 hPa

EDDS 232350Z 25013KT 9999 -RA FEW006 BKN040 11/09 Q1022

Prognose für EDDS

vom 23.02. um 00:00 UTC

Zwischen 00:00 und 00:00 UTC übergehend zu

Wind 6 kt aus 280°

Sichtweite 10 km oder mehr

aufgebrochene Bewölkung in 3000 ft


Zwischen 00:00 UTC und 00:00 UTC zeitweise

Regen

aufgebrochene Bewölkung in 1400 ft


Zwischen 00:00 UTC und 00:00 UTC

Wind 13 kt aus 280°

Sichtweite 10 km oder mehr

aufgebrochene Bewölkung in 3000 ft


Zwischen 00:00 und 00:00 UTC übergehend zu

variable Windrichtung mit 3 kt

Sichtweite 10 km oder mehr

aufgebrochene Bewölkung in 3000 ft


Zwischen 00:00 und 00:00 UTC übergehend zu

Wind 8 kt aus 220°

Sichtweite 10 km oder mehr

aufgebrochene Bewölkung in 3000 ft

TAF EDDS 232300Z 2400/2424 28013KT 9999 BKN030 TEMPO 2400/2411 RA BKN014 BECMG 2400/2403 28006KT BECMG 2404/2407 VRB03KT BECMG 2410/2413 22008KT
Impressum